createdAt,value
2023-02-17T00:01:22.445Z,100.68
2023-02-17T00:03:51.054Z,99.13
2023-02-17T00:06:21.466Z,101.95
2023-02-17T00:08:49.208Z,102.47
2023-02-17T00:11:17.625Z,102.90
2023-02-17T00:13:45.812Z,100.65
2023-02-17T00:16:17.717Z,105.95
2023-02-17T00:21:18.076Z,101.38
2023-02-17T00:23:47.127Z,101.75
2023-02-17T00:26:14.880Z,103.88
2023-02-17T00:28:44.098Z,105.97
2023-02-17T00:31:16.990Z,103.55
2023-02-17T00:33:44.377Z,103.60
2023-02-17T00:36:14.884Z,102.20
2023-02-17T00:38:42.199Z,103.93
2023-02-17T00:41:09.619Z,104.55
2023-02-17T00:43:37.006Z,102.47
2023-02-17T00:46:04.855Z,100.55
2023-02-17T00:48:32.684Z,103.63
2023-02-17T00:51:00.253Z,104.20
2023-02-17T00:53:28.142Z,103.18
2023-02-17T00:55:55.833Z,105.20
2023-02-17T00:58:23.517Z,107.22
2023-02-17T01:00:51.055Z,104.63
2023-02-17T01:03:19.238Z,105.93
2023-02-17T01:05:48.865Z,104.18
2023-02-17T01:08:19.136Z,105.03
2023-02-17T01:10:48.184Z,104.10
2023-02-17T01:13:17.336Z,105.97
2023-02-17T01:15:48.799Z,104.85
2023-02-17T01:18:18.041Z,104.93
2023-02-17T01:20:45.829Z,106.15
2023-02-17T01:23:13.952Z,105.47
2023-02-17T01:25:46.391Z,104.30
2023-02-17T01:28:20.517Z,105.07
2023-02-17T01:30:48.540Z,106.25
2023-02-17T01:33:16.138Z,103.63
2023-02-17T01:35:43.583Z,104.03
2023-02-17T01:38:16.051Z,103.05
2023-02-17T01:40:48.003Z,104.53
2023-02-17T01:43:17.591Z,100.85
2023-02-17T01:45:59.632Z,93.47
2023-02-17T01:51:11.054Z,86.28
2023-02-17T01:53:48.486Z,90.80
2023-02-17T01:56:17.370Z,87.57
2023-02-17T01:58:56.452Z,90.03
2023-02-17T02:01:24.042Z,89.78
2023-02-17T02:03:53.307Z,90.22
2023-02-17T02:06:26.072Z,90.18
2023-02-17T02:08:59.357Z,92.38
2023-02-17T02:11:33.105Z,92.28
2023-02-17T02:14:01.108Z,93.28
2023-02-17T02:16:37.453Z,94.60
2023-02-17T02:19:20.030Z,93.30
2023-02-17T02:22:10.932Z,95.88
2023-02-17T02:25:08.285Z,89.80
2023-02-17T02:27:55.846Z,93.28
2023-02-17T02:30:51.406Z,91.75
2023-02-17T02:33:28.852Z,93.60
2023-02-17T02:36:33.118Z,95.78
2023-02-17T02:39:17.573Z,96.88
2023-02-17T02:41:54.202Z,92.90
2023-02-17T02:44:22.165Z,96.07
2023-02-17T02:47:05.191Z,93.65
2023-02-17T02:49:36.580Z,91.90
2023-02-17T02:52:17.328Z,92.72
2023-02-17T02:55:11.049Z,91.40
2023-02-17T02:57:58.536Z,90.63
2023-02-17T03:00:39.053Z,90.85
2023-02-17T03:03:22.445Z,90.35
2023-02-17T03:06:10.853Z,90.78
2023-02-17T03:08:53.393Z,89.05
2023-02-17T03:11:34.718Z,87.80
2023-02-17T03:14:09.770Z,90.43
2023-02-17T03:16:39.174Z,89.97
2023-02-17T03:19:07.490Z,88.22
2023-02-17T03:21:39.460Z,88.47
2023-02-17T03:26:34.374Z,83.85
2023-02-17T03:29:01.817Z,83.57
2023-02-17T03:31:31.029Z,81.45
2023-02-17T03:33:59.407Z,81.35
2023-02-17T03:36:27.326Z,78.72
2023-02-17T03:38:54.625Z,75.22
2023-02-17T03:41:40.278Z,68.45
2023-02-17T03:44:07.611Z,69.13
2023-02-17T03:46:35.232Z,71.25
2023-02-17T03:49:02.540Z,66.18
2023-02-17T03:51:29.895Z,69.32
2023-02-17T03:53:57.224Z,63.80
2023-02-17T03:56:24.604Z,62.80
2023-02-17T03:58:51.962Z,65.30
2023-02-17T04:01:19.771Z,66.68
2023-02-17T04:03:47.292Z,64.10
2023-02-17T04:06:15.023Z,63.25
2023-02-17T04:08:42.472Z,62.03
2023-02-17T04:11:11.006Z,63.88
2023-02-17T04:13:38.916Z,63.70
2023-02-17T04:16:10.090Z,61.08
2023-02-17T04:18:38.148Z,64.68
2023-02-17T04:21:06.404Z,64.40
2023-02-17T04:23:37.559Z,63.70
2023-02-17T04:26:07.200Z,61.67
2023-02-17T04:28:37.897Z,61.42
2023-02-17T04:31:05.638Z,59.83
2023-02-17T04:33:33.679Z,62.15
2023-02-17T04:36:01.421Z,60.70
2023-02-17T04:38:31.437Z,60.97
2023-02-17T04:41:00.353Z,60.67
2023-02-17T04:43:28.680Z,60.28
2023-02-17T04:45:56.633Z,59.80
2023-02-17T04:48:24.978Z,58.42
2023-02-17T04:50:52.688Z,61.22
2023-02-17T04:53:20.367Z,59.75
2023-02-17T04:55:50.632Z,56.65
2023-02-17T04:58:18.473Z,58.50
2023-02-17T05:00:53.182Z,58.67
2023-02-17T05:03:20.654Z,57.90
2023-02-17T05:05:48.030Z,57.45
2023-02-17T05:08:15.868Z,57.00
2023-02-17T05:10:43.204Z,55.75
2023-02-17T05:13:10.823Z,55.38
2023-02-17T05:15:38.292Z,54.17
2023-02-17T05:18:06.139Z,53.65
2023-02-17T05:20:33.506Z,53.65
2023-02-17T05:23:01.030Z,52.58
2023-02-17T05:25:28.565Z,52.85
2023-02-17T05:27:55.914Z,52.85
2023-02-17T05:30:23.779Z,52.17
2023-02-17T05:32:51.190Z,53.28
2023-02-17T05:35:18.646Z,52.45
2023-02-17T05:37:46.026Z,51.75
2023-02-17T05:40:15.345Z,52.63
2023-02-17T05:42:42.675Z,51.47
2023-02-17T05:45:10.337Z,49.38
2023-02-17T05:47:37.620Z,51.67
2023-02-17T05:50:05.557Z,49.17
2023-02-17T05:52:32.858Z,46.97
2023-02-17T05:55:00.277Z,49.70
2023-02-17T05:57:30.850Z,47.17
2023-02-17T05:59:58.378Z,49.10
2023-02-17T06:02:25.868Z,50.65
2023-02-17T06:04:53.314Z,49.35
2023-02-17T06:07:20.772Z,49.72
2023-02-17T06:09:48.106Z,51.83
2023-02-17T06:12:15.897Z,51.65
2023-02-17T06:14:43.245Z,50.85
2023-02-17T06:17:10.935Z,53.33
2023-02-17T06:19:38.256Z,52.45
2023-02-17T06:22:05.641Z,54.15
2023-02-17T06:24:33.067Z,52.83
2023-02-17T06:27:01.405Z,56.33
2023-02-17T06:29:28.875Z,56.08
2023-02-17T06:31:57.540Z,54.95
2023-02-17T06:34:25.111Z,55.63
2023-02-17T06:36:52.475Z,57.05
2023-02-17T06:39:19.843Z,52.92
2023-02-17T06:41:47.255Z,55.97
2023-02-17T06:44:14.609Z,54.90
2023-02-17T06:46:42.006Z,56.10
2023-02-17T06:49:09.336Z,53.97
2023-02-17T06:51:36.700Z,54.00
2023-02-17T06:54:04.216Z,54.20
2023-02-17T06:56:31.567Z,53.53
2023-02-17T06:58:58.938Z,56.88
2023-02-17T07:01:26.527Z,58.88
2023-02-17T07:03:54.797Z,54.58
2023-02-17T07:06:23.574Z,57.08
2023-02-17T07:08:51.571Z,56.00
2023-02-17T07:11:19.345Z,54.83
2023-02-17T07:13:47.210Z,55.50
2023-02-17T07:16:15.441Z,56.72
2023-02-17T07:18:42.837Z,56.83
2023-02-17T07:21:10.879Z,56.75
2023-02-17T07:23:39.550Z,57.88
2023-02-17T07:26:09.716Z,55.75
2023-02-17T07:28:38.097Z,56.00
2023-02-17T07:31:10.965Z,56.33
2023-02-17T07:33:39.090Z,54.03
2023-02-17T07:36:12.088Z,54.72
2023-02-17T07:38:40.413Z,52.90
2023-02-17T07:41:14.043Z,55.15
2023-02-17T07:43:41.716Z,54.13
2023-02-17T07:46:10.879Z,54.00
2023-02-17T07:48:39.160Z,54.03
2023-02-17T07:51:15.184Z,53.97
2023-02-17T07:53:43.308Z,56.45
2023-02-17T07:56:13.894Z,56.47
2023-02-17T07:58:42.770Z,57.30
2023-02-17T08:01:14.037Z,60.92
2023-02-17T08:03:42.972Z,65.15
2023-02-17T08:06:15.961Z,74.32
2023-02-17T08:09:02.407Z,75.93
2023-02-17T08:11:49.850Z,75.47
2023-02-17T08:14:18.110Z,76.63
2023-02-17T08:16:45.582Z,80.15
2023-02-17T08:19:12.939Z,85.85
2023-02-17T08:21:40.375Z,86.88
2023-02-17T08:24:07.926Z,92.47
2023-02-17T08:26:35.257Z,94.30
2023-02-17T08:29:02.849Z,94.97
2023-02-17T08:31:35.745Z,95.57
2023-02-17T08:34:06.233Z,97.65
2023-02-17T08:36:33.847Z,101.63
2023-02-17T08:39:01.540Z,109.85
2023-02-17T08:41:34.713Z,104.30
2023-02-17T08:44:12.276Z,102.90
2023-02-17T08:46:40.793Z,99.40
2023-02-17T08:49:08.881Z,100.13
2023-02-17T08:51:37.302Z,89.40
2023-02-17T08:54:07.098Z,84.50
2023-02-17T08:56:35.038Z,85.57
2023-02-17T08:59:02.891Z,84.60
2023-02-17T09:01:30.998Z,85.40
2023-02-17T09:04:00.746Z,86.63
2023-02-17T09:06:35.541Z,82.55
2023-02-17T09:09:05.019Z,93.60
2023-02-17T09:11:32.585Z,96.75
2023-02-17T09:14:00.090Z,98.57
2023-02-17T09:16:27.507Z,99.90
2023-02-17T09:18:57.824Z,100.78
2023-02-17T09:21:25.293Z,111.90
2023-02-17T09:23:53.907Z,111.60
2023-02-17T09:26:22.250Z,108.97
2023-02-17T09:28:49.772Z,106.30
2023-02-17T09:31:22.946Z,107.85
2023-02-17T09:33:51.252Z,106.22
2023-02-17T09:36:25.350Z,106.13
2023-02-17T09:38:53.253Z,104.25
2023-02-17T09:41:25.710Z,101.43
2023-02-17T09:43:55.498Z,101.07
2023-02-17T09:46:33.793Z,100.63
2023-02-17T09:49:08.793Z,101.00
2023-02-17T09:51:42.588Z,101.97
2023-02-17T09:54:22.881Z,99.28
2023-02-17T09:56:53.183Z,99.38
2023-02-17T09:59:29.405Z,97.15
2023-02-17T10:01:57.600Z,99.50
2023-02-17T10:04:34.237Z,99.72
2023-02-17T10:07:13.692Z,102.80
2023-02-17T10:09:55.953Z,102.68
2023-02-17T10:12:37.706Z,104.43
2023-02-17T10:15:13.390Z,107.30
2023-02-17T10:18:17.138Z,109.15
2023-02-17T10:21:13.244Z,108.93
2023-02-17T10:23:40.756Z,110.43
2023-02-17T10:26:14.247Z,114.85
2023-02-17T10:29:05.763Z,118.18
2023-02-17T10:31:52.414Z,118.07
2023-02-17T10:34:22.902Z,116.90
2023-02-17T10:36:59.145Z,115.55
2023-02-17T10:39:44.985Z,116.97
2023-02-17T10:42:24.510Z,113.22
2023-02-17T10:44:53.769Z,112.68
2023-02-17T10:47:22.214Z,112.95
2023-02-17T10:49:54.708Z,115.63
2023-02-17T10:52:25.743Z,113.43
2023-02-17T10:55:01.927Z,117.63
2023-02-17T10:57:35.409Z,115.80
2023-02-17T11:00:05.283Z,117.47
2023-02-17T11:02:40.131Z,116.53
2023-02-17T11:05:09.025Z,115.97
2023-02-17T11:07:41.804Z,111.03
2023-02-17T11:10:41.902Z,109.63
2023-02-17T11:13:30.932Z,107.75
2023-02-17T11:15:58.858Z,110.63
2023-02-17T11:18:31.378Z,110.15
2023-02-17T11:21:08.943Z,108.97
2023-02-17T11:23:46.677Z,108.20
2023-02-17T11:26:23.318Z,105.47
2023-02-17T11:28:51.335Z,106.90
2023-02-17T11:31:31.728Z,107.63
2023-02-17T11:33:59.134Z,107.40
2023-02-17T11:36:32.704Z,104.35
2023-02-17T11:39:13.580Z,101.57
2023-02-17T11:41:41.076Z,104.10
2023-02-17T11:44:09.990Z,102.15
2023-02-17T11:46:44.424Z,101.75
2023-02-17T11:49:37.641Z,100.20
2023-02-17T11:52:18.019Z,103.93
2023-02-17T11:54:58.104Z,101.00
2023-02-17T11:57:37.812Z,100.90
2023-02-17T12:00:22.611Z,99.03
2023-02-17T12:03:18.244Z,97.97
2023-02-17T12:06:09.132Z,98.68
2023-02-17T12:08:48.310Z,96.65
2023-02-17T12:11:49.496Z,94.63
2023-02-17T12:14:50.644Z,93.20
2023-02-17T12:17:36.384Z,90.95
2023-02-17T12:20:20.344Z,87.13
2023-02-17T12:23:15.901Z,89.07
2023-02-17T12:25:49.160Z,85.03
2023-02-17T12:28:30.630Z,85.18
2023-02-17T12:31:11.171Z,83.28
2023-02-17T12:33:56.612Z,79.35
2023-02-17T12:36:30.471Z,78.30
2023-02-17T12:39:02.821Z,77.63
2023-02-17T12:41:42.145Z,72.53
2023-02-17T12:44:20.992Z,76.70
2023-02-17T12:46:55.840Z,68.65
2023-02-17T12:49:30.167Z,64.28
2023-02-17T12:52:06.877Z,63.75
2023-02-17T12:54:56.819Z,59.95
2023-02-17T12:57:32.677Z,59.50
2023-02-17T13:00:01.565Z,58.35
2023-02-17T13:02:30.799Z,59.97
2023-02-17T13:05:03.448Z,59.25
2023-02-17T13:07:39.733Z,60.03
2023-02-17T13:10:17.911Z,58.38
2023-02-17T13:12:56.209Z,57.00
2023-02-17T13:15:44.774Z,57.92
2023-02-17T13:18:27.868Z,47.40
2023-02-17T13:21:17.032Z,46.38
2023-02-17T13:23:57.923Z,44.00
2023-02-17T13:26:34.712Z,40.58
2023-02-17T13:29:08.373Z,40.88
2023-02-17T13:31:55.292Z,42.88
2023-02-17T13:34:44.238Z,43.53
2023-02-17T13:37:41.038Z,42.67
2023-02-17T13:40:20.519Z,40.75
2023-02-17T13:42:56.605Z,46.30
2023-02-17T13:45:28.418Z,45.60
2023-02-17T13:47:58.634Z,43.13
2023-02-17T13:50:33.806Z,41.67
2023-02-17T13:53:33.970Z,41.40
2023-02-17T13:56:05.570Z,41.55
2023-02-17T13:58:39.940Z,38.88
2023-02-17T14:01:14.993Z,36.83
2023-02-17T14:03:47.645Z,36.80
2023-02-17T14:06:40.505Z,37.65
2023-02-17T14:09:31.809Z,27.90
2023-02-17T14:12:02.786Z,28.15
2023-02-17T14:14:38.055Z,22.00
2023-02-17T14:17:09.160Z,16.15
2023-02-17T14:20:02.530Z,16.77
2023-02-17T14:22:32.421Z,16.98
2023-02-17T14:25:15.055Z,16.98
2023-02-17T14:27:43.004Z,16.98
2023-02-17T14:30:14.401Z,17.45
2023-02-17T14:32:41.753Z,17.42
2023-02-17T14:35:32.581Z,17.48
2023-02-17T14:38:09.989Z,17.17
2023-02-17T14:40:39.922Z,18.05
2023-02-17T14:43:07.438Z,17.48
2023-02-17T14:45:34.710Z,17.40
2023-02-17T14:48:05.169Z,16.73
2023-02-17T14:50:42.283Z,16.17
2023-02-17T14:53:32.831Z,16.40
2023-02-17T14:56:10.473Z,17.15
2023-02-17T14:58:37.841Z,16.83
2023-02-17T15:01:05.778Z,17.08
2023-02-17T15:03:33.080Z,15.68
2023-02-17T15:06:01.114Z,15.70
2023-02-17T15:08:33.125Z,16.45
2023-02-17T15:11:01.472Z,16.52
2023-02-17T15:13:28.916Z,15.80
2023-02-17T15:15:56.251Z,15.88
2023-02-17T15:18:23.716Z,16.38
2023-02-17T15:20:51.874Z,16.55
2023-02-17T15:23:22.661Z,17.40
2023-02-17T15:25:50.122Z,17.10
2023-02-17T15:28:19.813Z,16.80
2023-02-17T15:30:55.807Z,16.52
2023-02-17T15:33:24.699Z,17.33
2023-02-17T15:35:54.823Z,17.48
2023-02-17T15:38:23.298Z,17.17
2023-02-17T15:40:51.062Z,17.05
2023-02-17T15:43:21.889Z,17.17
2023-02-17T15:45:49.470Z,16.55
2023-02-17T15:48:27.368Z,17.60
2023-02-17T15:50:54.711Z,17.75
2023-02-17T15:53:22.215Z,18.25
2023-02-17T15:55:50.497Z,18.40
2023-02-17T15:58:21.213Z,19.20
2023-02-17T16:00:50.339Z,17.20
2023-02-17T16:03:18.538Z,18.38
2023-02-17T16:05:45.947Z,17.50
2023-02-17T16:08:13.484Z,17.75
2023-02-17T16:10:42.536Z,17.10
2023-02-17T16:13:14.825Z,16.95
2023-02-17T16:15:42.830Z,18.52
2023-02-17T16:18:19.905Z,18.75
2023-02-17T16:20:47.493Z,17.98
2023-02-17T16:23:14.945Z,17.92
2023-02-17T16:25:44.514Z,18.90
2023-02-17T16:28:18.180Z,19.23
2023-02-17T16:30:49.698Z,17.85
2023-02-17T16:33:17.670Z,19.42
2023-02-17T16:35:45.504Z,18.10
2023-02-17T16:38:22.320Z,19.73
2023-02-17T16:40:52.692Z,18.80
2023-02-17T16:43:26.841Z,19.10
2023-02-17T16:46:00.641Z,19.27
2023-02-17T16:48:31.763Z,19.48
2023-02-17T16:50:59.396Z,19.97
2023-02-17T16:53:26.870Z,19.23
2023-02-17T16:55:55.467Z,19.80
2023-02-17T16:58:25.464Z,19.55
2023-02-17T17:00:55.081Z,20.48
2023-02-17T17:03:22.738Z,24.52
2023-02-17T17:05:52.585Z,25.77
2023-02-17T17:08:21.699Z,27.10
2023-02-17T17:10:52.486Z,27.90
2023-02-17T17:13:19.877Z,29.20
2023-02-17T17:15:47.297Z,30.13
2023-02-17T17:18:21.718Z,31.48
2023-02-17T17:20:49.448Z,36.50
2023-02-17T17:23:16.905Z,43.22
2023-02-17T17:25:46.749Z,47.13
2023-02-17T17:28:17.137Z,53.65
2023-02-17T17:30:45.002Z,55.33
2023-02-17T17:33:12.440Z,60.75
2023-02-17T17:35:39.913Z,60.83
2023-02-17T17:38:07.705Z,65.50
2023-02-17T17:40:48.434Z,67.70
2023-02-17T17:43:20.390Z,70.90
2023-02-17T17:45:49.465Z,77.38
2023-02-17T17:48:18.070Z,79.95
2023-02-17T17:50:45.956Z,81.75
2023-02-17T17:53:13.307Z,87.00
2023-02-17T17:55:40.801Z,85.53
2023-02-17T17:58:08.188Z,88.22
2023-02-17T18:00:35.577Z,86.35
2023-02-17T18:03:05.708Z,89.93
2023-02-17T18:05:33.058Z,87.88
2023-02-17T18:08:01.021Z,90.47
2023-02-17T18:10:28.375Z,89.55
2023-02-17T18:12:55.839Z,88.93
2023-02-17T18:15:23.173Z,91.75
2023-02-17T18:17:53.609Z,89.25
2023-02-17T18:20:21.188Z,92.03
2023-02-17T18:22:48.557Z,93.43
2023-02-17T18:25:16.087Z,92.10
2023-02-17T18:27:46.246Z,94.28
2023-02-17T18:30:17.864Z,94.18
2023-02-17T18:32:45.533Z,99.22
2023-02-17T18:35:14.014Z,96.47
2023-02-17T18:37:45.314Z,96.60
2023-02-17T18:40:15.035Z,96.03
2023-02-17T18:42:45.460Z,97.78
2023-02-17T18:45:13.986Z,97.38
2023-02-17T18:47:42.662Z,98.13
2023-02-17T18:50:11.353Z,98.85
2023-02-17T18:52:39.946Z,99.88
2023-02-17T18:55:08.504Z,101.32
2023-02-17T18:57:36.777Z,100.78
2023-02-17T19:00:05.968Z,102.15
2023-02-17T19:02:36.707Z,106.28
2023-02-17T19:05:05.552Z,103.03
2023-02-17T19:07:33.962Z,104.15
2023-02-17T19:10:01.640Z,103.88
2023-02-17T19:12:28.917Z,104.72
2023-02-17T19:15:17.270Z,103.60
2023-02-17T19:17:45.629Z,102.43
2023-02-17T19:20:13.364Z,102.68
2023-02-17T19:22:40.653Z,105.22
2023-02-17T19:25:08.435Z,101.50
2023-02-17T19:27:38.845Z,105.07
2023-02-17T19:30:10.371Z,104.00
2023-02-17T19:32:38.263Z,103.55
2023-02-17T19:35:05.975Z,105.80
2023-02-17T19:37:36.180Z,108.40
2023-02-17T19:40:04.138Z,105.53
2023-02-17T19:42:31.575Z,106.90
2023-02-17T19:44:58.949Z,106.60
2023-02-17T19:47:26.307Z,108.40
2023-02-17T19:49:53.679Z,106.88
2023-02-17T19:52:21.131Z,105.38
2023-02-17T19:54:50.473Z,106.40
2023-02-17T19:57:18.460Z,100.00
2023-02-17T19:59:45.996Z,96.00
2023-02-17T20:02:16.521Z,94.70
2023-02-17T20:04:44.663Z,93.97
2023-02-17T20:07:12.049Z,96.55
2023-02-17T20:09:39.442Z,102.68
2023-02-17T20:12:07.181Z,98.30
2023-02-17T20:14:34.605Z,97.93
2023-02-17T20:17:02.014Z,100.68
2023-02-17T20:19:29.415Z,99.63
2023-02-17T20:21:56.904Z,101.93
2023-02-17T20:24:24.333Z,102.15
2023-02-17T20:26:53.576Z,101.28
2023-02-17T20:29:21.524Z,103.78
2023-02-17T20:31:49.184Z,110.55
2023-02-17T20:34:43.295Z,110.30
2023-02-17T20:37:11.221Z,107.75
2023-02-17T20:39:40.142Z,107.25
2023-02-17T20:42:07.721Z,109.32
2023-02-17T20:44:35.489Z,114.07
2023-02-17T20:47:03.175Z,115.70
2023-02-17T20:49:30.493Z,113.28
2023-02-17T20:51:58.316Z,113.72
2023-02-17T20:54:26.178Z,115.72
2023-02-17T20:56:53.861Z,111.95
2023-02-17T20:59:21.286Z,112.03
2023-02-17T21:01:48.698Z,115.15
2023-02-17T21:04:17.294Z,115.55
2023-02-17T21:06:46.957Z,112.75
2023-02-17T21:09:17.333Z,115.30
2023-02-17T21:11:45.562Z,116.22
2023-02-17T21:14:13.301Z,110.78
2023-02-17T21:16:40.809Z,114.28
2023-02-17T21:19:08.429Z,113.38
2023-02-17T21:21:35.934Z,112.95
2023-02-17T21:24:04.210Z,113.05
2023-02-17T21:26:34.239Z,115.05
2023-02-17T21:29:01.764Z,113.45
2023-02-17T21:31:29.343Z,113.60
2023-02-17T21:33:59.075Z,110.07
2023-02-17T21:36:29.056Z,110.20
2023-02-17T21:38:57.578Z,110.88
2023-02-17T21:41:27.630Z,111.18
2023-02-17T21:44:13.927Z,110.10
2023-02-17T21:46:43.006Z,109.30
2023-02-17T21:49:10.772Z,110.32
2023-02-17T21:51:39.937Z,108.07
2023-02-17T21:54:07.930Z,110.60
2023-02-17T21:56:36.366Z,110.57
2023-02-17T21:59:04.808Z,109.13
2023-02-17T22:01:33.896Z,113.05
2023-02-17T22:04:02.514Z,111.10
2023-02-17T22:06:34.064Z,111.63
2023-02-17T22:09:02.533Z,110.47
2023-02-17T22:11:32.662Z,110.90
2023-02-17T22:14:02.374Z,110.85
2023-02-17T22:16:32.319Z,112.25
2023-02-17T22:19:00.073Z,112.35
2023-02-17T22:21:27.918Z,109.25
2023-02-17T22:23:56.669Z,115.03
2023-02-17T22:26:25.705Z,111.65
2023-02-17T22:28:53.973Z,110.85
2023-02-17T22:31:23.821Z,110.68
2023-02-17T22:33:51.487Z,114.03
2023-02-17T22:36:22.571Z,113.72
2023-02-17T22:38:51.099Z,114.87
2023-02-17T22:41:21.819Z,108.32
2023-02-17T22:43:49.727Z,110.15
2023-02-17T22:46:19.406Z,108.30
2023-02-17T22:48:48.726Z,110.45
2023-02-17T22:51:21.886Z,107.60
2023-02-17T22:53:49.585Z,109.40
2023-02-17T22:56:17.011Z,108.70
2023-02-17T22:58:44.464Z,107.07
2023-02-17T23:01:13.183Z,106.78
2023-02-17T23:03:41.420Z,105.47
2023-02-17T23:06:19.629Z,104.28
2023-02-17T23:08:48.894Z,105.70
2023-02-17T23:11:18.827Z,107.00
2023-02-17T23:13:46.385Z,104.82
2023-02-17T23:16:18.916Z,109.30
2023-02-17T23:18:46.248Z,106.45
2023-02-17T23:21:13.795Z,107.68
2023-02-17T23:23:41.186Z,108.75
2023-02-17T23:26:08.790Z,108.93
2023-02-17T23:28:36.333Z,111.10
2023-02-17T23:31:03.788Z,110.05
2023-02-17T23:33:31.996Z,109.18
2023-02-17T23:35:59.407Z,110.65
2023-02-17T23:38:26.740Z,107.22
2023-02-17T23:40:54.077Z,106.88
2023-02-17T23:43:21.715Z,110.25
2023-02-17T23:45:49.734Z,107.90
2023-02-17T23:48:17.179Z,108.55
2023-02-17T23:50:46.548Z,108.35
2023-02-17T23:53:15.399Z,109.88
2023-02-17T23:55:42.728Z,105.53
2023-02-17T23:58:10.056Z,112.63
